sensor_id;sensor_type;location;lat;lon;timestamp;P1;durP1;ratioP1;P2;durP2;ratioP2
46633;SDS011;32362;49.986;8.026;2023-07-28T00:19:56;4.83;;;2.30;;
46633;SDS011;32362;49.986;8.026;2023-07-28T00:46:36;5.17;;;2.80;;
46633;SDS011;32362;49.986;8.026;2023-07-28T01:13:17;4.75;;;2.53;;
46633;SDS011;32362;49.986;8.026;2023-07-28T01:39:58;4.28;;;2.47;;
46633;SDS011;32362;49.986;8.026;2023-07-28T02:06:38;5.72;;;3.08;;
46633;SDS011;32362;49.986;8.026;2023-07-28T02:33:20;5.10;;;2.90;;
46633;SDS011;32362;49.986;8.026;2023-07-28T03:00:00;8.15;;;3.80;;
46633;SDS011;32362;49.986;8.026;2023-07-28T03:26:42;8.43;;;3.25;;
46633;SDS011;32362;49.986;8.026;2023-07-28T03:53:23;2.95;;;1.85;;
46633;SDS011;32362;49.986;8.026;2023-07-28T04:20:04;3.47;;;1.95;;
46633;SDS011;32362;49.986;8.026;2023-07-28T04:46:46;1.55;;;1.20;;
46633;SDS011;32362;49.986;8.026;2023-07-28T05:13:31;10.20;;;1.60;;
46633;SDS011;32362;49.986;8.026;2023-07-28T05:40:12;0.80;;;0.80;;
46633;SDS011;32362;49.986;8.026;2023-07-28T06:06:53;1.08;;;0.98;;
46633;SDS011;32362;49.986;8.026;2023-07-28T06:33:34;0.90;;;0.80;;
46633;SDS011;32362;49.986;8.026;2023-07-28T07:00:17;1.27;;;0.70;;
46633;SDS011;32362;49.986;8.026;2023-07-28T07:27:00;3.75;;;0.70;;
46633;SDS011;32362;49.986;8.026;2023-07-28T07:53:41;0.60;;;0.38;;
46633;SDS011;32362;49.986;8.026;2023-07-28T08:20:21;0.20;;;0.20;;
46633;SDS011;32362;49.986;8.026;2023-07-28T08:47:03;0.40;;;0.40;;
46633;SDS011;32362;49.986;8.026;2023-07-28T09:13:45;0.40;;;0.40;;
46633;SDS011;32362;49.986;8.026;2023-07-28T09:40:25;0.97;;;0.43;;
46633;SDS011;32362;49.986;8.026;2023-07-28T10:07:07;0.38;;;0.35;;
46633;SDS011;32362;49.986;8.026;2023-07-28T10:33:49;1.35;;;0.60;;
46633;SDS011;32362;49.986;8.026;2023-07-28T11:00:30;0.50;;;0.50;;
46633;SDS011;32362;49.986;8.026;2023-07-28T11:27:13;1.00;;;0.90;;
46633;SDS011;32362;49.986;8.026;2023-07-28T11:53:53;2.77;;;1.30;;
46633;SDS011;32362;49.986;8.026;2023-07-28T12:47:26;3.30;;;2.58;;
46633;SDS011;32362;49.986;8.026;2023-07-28T13:14:07;1.10;;;1.00;;
46633;SDS011;32362;49.986;8.026;2023-07-28T13:40:48;1.67;;;1.07;;
46633;SDS011;32362;49.986;8.026;2023-07-28T14:07:28;0.50;;;0.50;;
46633;SDS011;32362;49.986;8.026;2023-07-28T14:34:09;0.75;;;0.38;;
46633;SDS011;32362;49.986;8.026;2023-07-28T15:00:50;0.60;;;0.60;;
46633;SDS011;32362;49.986;8.026;2023-07-28T15:27:30;1.10;;;1.00;;
46633;SDS011;32362;49.986;8.026;2023-07-28T15:54:11;1.20;;;0.87;;
46633;SDS011;32362;49.986;8.026;2023-07-28T16:20:53;0.43;;;0.43;;
46633;SDS011;32362;49.986;8.026;2023-07-28T16:47:33;1.00;;;0.70;;
46633;SDS011;32362;49.986;8.026;2023-07-28T17:14:16;1.48;;;0.60;;
46633;SDS011;32362;49.986;8.026;2023-07-28T17:40:57;1.10;;;0.70;;
46633;SDS011;32362;49.986;8.026;2023-07-28T18:07:38;0.50;;;0.50;;
46633;SDS011;32362;49.986;8.026;2023-07-28T18:34:19;0.43;;;0.43;;
46633;SDS011;32362;49.986;8.026;2023-07-28T19:01:01;0.85;;;0.70;;
46633;SDS011;32362;49.986;8.026;2023-07-28T19:27:43;0.65;;;0.60;;
46633;SDS011;32362;49.986;8.026;2023-07-28T19:54:25;1.85;;;0.47;;
46633;SDS011;32362;49.986;8.026;2023-07-28T20:21:09;1.02;;;1.02;;
46633;SDS011;32362;49.986;8.026;2023-07-28T20:47:51;1.20;;;1.10;;
46633;SDS011;32362;49.986;8.026;2023-07-28T21:14:33;2.33;;;1.02;;
46633;SDS011;32362;49.986;8.026;2023-07-28T21:41:17;1.17;;;1.00;;
46633;SDS011;32362;49.986;8.026;2023-07-28T22:08:05;1.85;;;1.13;;
46633;SDS011;32362;49.986;8.026;2023-07-28T22:34:51;1.50;;;1.35;;
46633;SDS011;32362;49.986;8.026;2023-07-28T23:01:33;3.13;;;1.30;;
46633;SDS011;32362;49.986;8.026;2023-07-28T23:28:15;1.92;;;1.60;;
46633;SDS011;32362;49.986;8.026;2023-07-28T23:54:55;2.73;;;2.00;;
